TFFRTFFF

Guest
Details From TFFR - Pointe a Pitre Le Raizet
To TFFF - Martinique/Aime Cesaire Intl
Flight Number -
Tags generated
Created
Modified
Stats Distance 106 nm / 196 km
Max Altitude 100 ft / 30 m
Waypoints 3
Social Downloads 1
Likes 0
Share VATSIM

Download

Looking for another format? Having issues loading an existing format? Contact us
Advertisement - Login to hide

Notes

Basic altitude profile: - Ascent Rate: 2500ft/min - Ascent Speed: 250kts - Cruise Altitude: 35000ft - Cruise Speed: 420kts - Descent Rate: 1500ft/min - Descent Speed: 250kts Options: - Use NATs: yes - Use PACOTS: yes - Use low airways: no - Use high airways: yes

Route

TFFR PPR TFFF

ID Type Via Altitude Latitude Longitude Leg Dist Tot Dist Heading (true) Name
O TFFR APT - 0 ft / 0 m 16.26531˚ -61.53181˚ - 0 nm - Pointe a Pitre Le Raizet
PPR DME - 100 ft / 30 m 16.26519˚ -61.54014˚ 0 nm 0 nm 269° / 269° POINTE A PITRE VOR-DME
O TFFF APT - 0 ft / 0 m 14.59103˚ -61.00317˚ 105 nm 105 nm 163° / 163° Martinique/Aime Cesaire Intl

Altitude Profile

Advertisement - Login to hide

TFFR

Details ICAO TFFR (PTP)
Name Pointe a Pitre Le Raizet
Region France (Guadeloupe, Martinique, Saint Barthélemy, Saint Martin)
Timezone America/Guadeloupe (UTC-4.0)
Stats Elevation 35 ft / 11 m (AMSL)
Location 16.265306° -61.531808°
Runways 1
Magnetic Variation 14.868° W

METAR

TFFR 262330Z AUTO 13004KT 100V170 9999 BKN050 BKN060 OVC074 26/23 Q1015 TEMPO 3000 SHRA BKN015TCU BECMG 09014KT

Decode

TAF

TAF TFFR 261700Z 2618/2718 09014KT 9999 SCT030 BKN050 TEMPO 2618/2718 3000 SHRA BKN015TCU PROB40 TEMPO 2703/2715 VRB15G30KT 1000 TSRA SCT011CB BKN015

Decode

Departure Runways

ID Width Length Bearing (true) Bearing (mag) Surface Threshold Offset Overrun Length
11 148 ft / 45 m 11,513 ft / 3,509 m 100.94° 115.81° Asphalt 0 ft / 0 m 0 ft / 0 m
29 148 ft / 45 m 11,513 ft / 3,509 m 280.95° 295.82° Asphalt 0 ft / 0 m 0 ft / 0 m

TFFF

Details ICAO TFFF (FDF)
Name Martinique/Aime Cesaire Intl
Region France (Guadeloupe, Martinique, Saint Barthélemy, Saint Martin)
Timezone America/Martinique (UTC-4.0)
Stats Elevation 16 ft / 5 m (AMSL)
Location 14.591032° -61.003173°
Runways 1
Magnetic Variation 15.072° W

METAR

TFFF 262330Z AUTO 12005KT 9999 FEW022 SCT040 27/23 Q1014 TEMPO 4000 SHRA BKN015TCU

Decode

TAF

TAF TFFF 261700Z 2618/2718 11013KT 9999 FEW013 SCT020 BKN040 TEMPO 2618/2709 4000 SHRA BKN015TCU PROB30 TEMPO 2715/2718 4000 SHRA SCT020TCU

Decode

Destination Runways

ID Width Length Bearing (true) Bearing (mag) Surface Threshold Offset Overrun Length
09 148 ft / 45 m 9,852 ft / 3,003 m 79.93° 95.00° Asphalt 0 ft / 0 m 0 ft / 0 m
27 148 ft / 45 m 9,852 ft / 3,003 m 259.94° 275.01° Asphalt 820 ft / 250 m 948 ft / 289 m

Approach Navaids

Runway Type Ident Frequency Range Bearing (true) Bearing (mag) Slope Elevation
09 Localiser FF 109.90 MHz 18 nm / 33 km 79.90° 94.98° - 16 ft / 5 m (AMSL)
09 Glidescope FF 109.90 MHz 10 nm / 19 km 79.93° 95.00° 3.00° 16 ft / 5 m (AMSL)

Popular Alternatives